»·PEaware :: CAX948 KGEG-KDEN

CAX948 :: KGEG-KDEN

FLIGHT INFORMATION

Flight Status: Arrived
Operator:
California Airlines (website)
More flights by this operator :: More flights under this callsign
Pilot: Tony D. (5369)
Aircraft: AIRBUS A320
(A320)
More flights by this aircraft type
Origin: KGEG Spokane Intl
United States
Destination: KDEN Denver Intl
United States
More flights between these airports :: More routes between these airports
Route: +GEG3 LKT J52 DBS GWEDO KAILE2
File this flight plan on PilotEdge
Remarks:
Altitude:
(Current/Filed)
37,000ft
Speed:
(Current/Filed)
451kts
Departed: 09-Jun-18 08:58 AM
Arrived: 09-Jun-18 10:52 AM
Distance/Time
Traveled:
725nm/1:54
Distance/Time
To Go:
Arrived

Flight Plot

Page will automatically refresh every two minutes.

Flight plan parsing failed; only flown route is shown


Map Options




Map Legend


Flown Route
Filed Route
Departure Airport
Arrival Airport
Navaid (VOR, NDB)
Fix

Horizontal Profiles

Position Reports

Time Latitude Longitude Heading Altitude Ground
Speed
09-Jun-18 08:24 47.624977 -117.535574 301 2368ft 0kts
09-Jun-18 08:25 47.624977 -117.535574 301 2368ft 0kts
09-Jun-18 08:26 47.624977 -117.535574 301 2368ft 0kts
09-Jun-18 08:27 47.624977 -117.535574 301 2368ft 0kts
09-Jun-18 08:28 47.624977 -117.535574 301 2368ft 0kts
09-Jun-18 08:29 47.624977 -117.535574 301 2368ft 0kts
09-Jun-18 08:30 47.624977 -117.535574 301 2368ft 0kts
09-Jun-18 08:31 47.624977 -117.535574 301 2368ft 0kts
09-Jun-18 08:32 47.624977 -117.535574 301 2368ft 0kts
09-Jun-18 08:33 47.624977 -117.535574 301 2368ft 0kts
09-Jun-18 08:34 47.624977 -117.535574 301 2368ft 0kts
09-Jun-18 08:35 47.624977 -117.535574 301 2368ft 0kts
09-Jun-18 08:36 47.624977 -117.535574 301 2368ft 0kts
09-Jun-18 08:37 47.624977 -117.535574 301 2368ft 0kts
09-Jun-18 08:38 47.624977 -117.535574 301 2368ft 0kts
09-Jun-18 08:39 47.624977 -117.535574 301 2368ft 0kts
09-Jun-18 08:40 47.624977 -117.535574 301 2368ft 0kts
09-Jun-18 08:41 47.624977 -117.535574 301 2368ft 0kts
09-Jun-18 08:42 47.624977 -117.535574 301 2368ft 0kts
09-Jun-18 08:43 47.624977 -117.535574 301 2368ft 0kts
09-Jun-18 08:44 47.624977 -117.535574 301 2368ft 0kts
09-Jun-18 08:45 47.624977 -117.535574 301 2368ft 0kts
09-Jun-18 08:46 47.624977 -117.535574 301 2368ft 0kts
09-Jun-18 08:47 47.624977 -117.535574 301 2368ft 0kts
09-Jun-18 08:48 47.624957 -117.535527 302 2368ft 2kts
09-Jun-18 08:49 47.624521 -117.535050 0 2368ft 2kts
09-Jun-18 08:50 47.624164 -117.535307 47 2368ft 0kts
09-Jun-18 08:51 47.624165 -117.535307 47 2368ft 0kts
09-Jun-18 08:52 47.624295 -117.534385 104 2368ft 5kts
09-Jun-18 08:53 47.624344 -117.532681 42 2368ft 4kts
09-Jun-18 08:54 47.625954 -117.530289 45 2368ft 12kts
09-Jun-18 08:55 47.628960 -117.525715 45 2368ft 16kts
09-Jun-18 08:56 47.631750 -117.521510 44 2368ft 9kts
09-Jun-18 08:57 47.631345 -117.518706 154 2368ft 8kts
09-Jun-18 08:58 47.620774 -117.533776 224 2379ft 162kts
09-Jun-18 08:59 47.585274 -117.585938 220 5122ft 199kts
09-Jun-18 09:00 47.535769 -117.650002 220 7419ft 269kts
09-Jun-18 09:01 47.477593 -117.721405 202 10315ft 281kts
09-Jun-18 09:02 47.404395 -117.673663 134 12267ft 345kts
09-Jun-18 09:03 47.339419 -117.567683 136 14818ft 352kts
09-Jun-18 09:04 47.273296 -117.461434 136 15040ft 354kts
09-Jun-18 09:05 47.206575 -117.354924 136 15103ft 354kts
09-Jun-18 09:06 47.139118 -117.247746 138 17118ft 364kts
09-Jun-18 09:07 47.070172 -117.138624 139 19350ft 372kts
09-Jun-18 09:08 46.999955 -117.027893 140 21561ft 372kts
09-Jun-18 09:09 46.929342 -116.917068 140 23423ft 377kts
09-Jun-18 09:10 46.857787 -116.805270 140 24958ft 386kts
09-Jun-18 09:11 46.784168 -116.690662 141 26463ft 394kts
09-Jun-18 09:12 46.708718 -116.573726 141 27836ft 401kts
09-Jun-18 09:13 46.631885 -116.455167 141 29073ft 407kts
09-Jun-18 09:14 46.553662 -116.335005 142 30193ft 413kts
09-Jun-18 09:15 46.474597 -116.214088 142 31176ft 418kts
09-Jun-18 09:16 46.395195 -116.093129 142 32424ft 413kts
09-Jun-18 09:17 46.316459 -115.973784 143 33569ft 408kts
09-Jun-18 09:18 46.238616 -115.856352 143 34544ft 406kts
09-Jun-18 09:19 46.160818 -115.739496 143 35391ft 404kts
09-Jun-18 09:20 46.083093 -115.623238 143 36169ft 402kts
09-Jun-18 09:21 46.005680 -115.507955 143 36813ft 402kts
09-Jun-18 09:22 45.928001 -115.392770 143 37002ft 402kts
09-Jun-18 09:23 45.850435 -115.278237 144 37001ft 401kts
09-Jun-18 09:24 45.773012 -115.164409 143 36992ft 401kts
09-Jun-18 09:25 45.695405 -115.050821 142 36940ft 407kts
09-Jun-18 09:26 45.615532 -114.934424 141 36957ft 419kts
09-Jun-18 09:27 45.533398 -114.815173 141 36956ft 423kts
09-Jun-18 09:28 45.450967 -114.696012 141 36956ft 422kts
09-Jun-18 09:29 45.368553 -114.577441 141 36951ft 422kts
09-Jun-18 09:30 45.286379 -114.459740 141 36950ft 422kts
09-Jun-18 09:31 45.203876 -114.342082 141 36953ft 422kts
09-Jun-18 09:32 45.121465 -114.225062 141 36955ft 421kts
09-Jun-18 09:33 45.039618 -114.109354 142 36935ft 422kts
09-Jun-18 09:34 44.968198 -113.974194 131 36932ft 436kts
09-Jun-18 09:35 44.899957 -113.833233 131 36955ft 439kts
09-Jun-18 09:36 44.830900 -113.691354 131 36991ft 441kts
09-Jun-18 09:37 44.761465 -113.549393 131 36998ft 441kts
09-Jun-18 09:38 44.691903 -113.407873 131 36977ft 441kts
09-Jun-18 09:39 44.622653 -113.267679 132 36960ft 439kts
09-Jun-18 09:40 44.553695 -113.128765 132 36979ft 438kts
09-Jun-18 09:41 44.484086 -112.989222 132 37005ft 438kts
09-Jun-18 09:42 44.414221 -112.849847 130 36988ft 441kts
09-Jun-18 09:43 44.343450 -112.709336 130 37021ft 446kts
09-Jun-18 09:44 44.271880 -112.567906 130 37088ft 448kts
09-Jun-18 09:45 44.199864 -112.426284 130 37099ft 449kts
09-Jun-18 09:46 44.128225 -112.286087 131 37088ft 448kts
09-Jun-18 09:47 44.051971 -112.151860 137 37068ft 442kts
09-Jun-18 09:48 43.970108 -112.024712 137 37054ft 441kts
09-Jun-18 09:49 43.888814 -111.898992 137 37052ft 441kts
09-Jun-18 09:50 43.806860 -111.772822 137 37064ft 442kts
09-Jun-18 09:51 43.724664 -111.646834 137 37068ft 442kts
09-Jun-18 09:52 43.642556 -111.521538 137 37096ft 442kts
09-Jun-18 09:53 43.560135 -111.396319 137 37143ft 441kts
09-Jun-18 09:54 43.477635 -111.271527 138 37155ft 441kts
09-Jun-18 09:55 43.399587 -111.153971 138 37144ft 440kts
09-Jun-18 09:56 43.317225 -111.030445 137 37168ft 441kts
09-Jun-18 09:57 43.234472 -110.906868 137 37207ft 441kts
09-Jun-18 09:58 43.151238 -110.783109 137 37207ft 442kts
09-Jun-18 09:59 43.068044 -110.659937 137 37183ft 442kts
09-Jun-18 10:00 42.984883 -110.537342 137 37215ft 442kts
09-Jun-18 10:01 42.915076 -110.434841 136 37257ft 443kts
09-Jun-18 10:02 42.831331 -110.312358 137 37279ft 444kts
09-Jun-18 10:03 42.733153 -110.169416 137 37284ft 444kts
09-Jun-18 10:04 42.662828 -110.067468 137 37279ft 444kts
09-Jun-18 10:05 42.564580 -109.925643 137 37273ft 443kts
09-Jun-18 10:06 42.480051 -109.804179 137 37272ft 443kts
09-Jun-18 10:07 42.395642 -109.683397 137 37269ft 443kts
09-Jun-18 10:08 42.311127 -109.562971 137 37270ft 443kts
09-Jun-18 10:09 42.226378 -109.442714 137 37270ft 443kts
09-Jun-18 10:10 42.155850 -109.343010 138 37231ft 443kts
09-Jun-18 10:11 42.071507 -109.224237 138 37206ft 442kts
09-Jun-18 10:12 41.986606 -109.105174 138 37190ft 442kts
09-Jun-18 10:13 41.901087 -108.985740 137 37183ft 445kts
09-Jun-18 10:14 41.815277 -108.866387 137 37211ft 448kts
09-Jun-18 10:15 41.728652 -108.746387 137 37236ft 450kts
09-Jun-18 10:16 41.641594 -108.626288 137 37236ft 450kts
09-Jun-18 10:17 41.554805 -108.507054 137 37222ft 449kts
09-Jun-18 10:18 41.467956 -108.388231 137 37210ft 449kts
09-Jun-18 10:19 41.382064 -108.271189 138 37220ft 448kts
09-Jun-18 10:20 41.312140 -108.134113 120 37255ft 456kts
09-Jun-18 10:21 41.253721 -107.984656 120 37255ft 455kts
09-Jun-18 10:22 41.195191 -107.835927 121 37250ft 455kts
09-Jun-18 10:23 41.136998 -107.688808 121 37254ft 455kts
09-Jun-18 10:24 41.079036 -107.542995 120 37256ft 455kts
09-Jun-18 10:25 41.019720 -107.394517 120 37257ft 457kts
09-Jun-18 10:26 40.960565 -107.247172 121 36678ft 457kts
09-Jun-18 10:27 40.900766 -107.098968 121 35702ft 458kts
09-Jun-18 10:28 40.841440 -106.952666 121 34770ft 461kts
09-Jun-18 10:29 40.780635 -106.803456 120 33808ft 465kts
09-Jun-18 10:30 40.719386 -106.653892 120 32845ft 467kts
09-Jun-18 10:31 40.657402 -106.503286 120 31878ft 467kts
09-Jun-18 10:32 40.596119 -106.355075 120 30591ft 455kts
09-Jun-18 10:33 40.536431 -106.211464 121 28516ft 443kts
09-Jun-18 10:34 40.478091 -106.071787 121 26455ft 430kts
09-Jun-18 10:35 40.434723 -105.928810 102 24319ft 424kts
09-Jun-18 10:36 40.411504 -105.780237 102 22205ft 413kts
09-Jun-18 10:37 40.388593 -105.635617 102 20126ft 394kts
09-Jun-18 10:38 40.366611 -105.498044 102 18621ft 370kts
09-Jun-18 10:39 40.347796 -105.370874 100 17307ft 350kts
09-Jun-18 10:40 40.331096 -105.249069 101 15714ft 333kts
09-Jun-18 10:41 40.314870 -105.131670 101 14175ft 325kts
09-Jun-18 10:42 40.299248 -105.019353 100 13300ft 296kts
09-Jun-18 10:43 40.285235 -104.919690 100 12676ft 268kts
09-Jun-18 10:44 40.271636 -104.825226 100 11652ft 262kts
09-Jun-18 10:45 40.251488 -104.734994 115 10749ft 257kts
09-Jun-18 10:46 40.196717 -104.685464 175 10063ft 245kts
09-Jun-18 10:47 40.126650 -104.684232 180 9783ft 246kts
09-Jun-18 10:48 40.063180 -104.684843 181 8755ft 217kts
09-Jun-18 10:49 40.006171 -104.685555 181 7578ft 192kts
09-Jun-18 10:50 39.955572 -104.686133 181 6617ft 163kts
09-Jun-18 10:51 39.912415 -104.686648 182 5782ft 154kts
09-Jun-18 10:52 39.882033 -104.686928 180 5443ft 36kts
09-Jun-18 10:53 39.876508 -104.685788 150 5443ft 5kts
09-Jun-18 10:54 39.874599 -104.684924 177 5443ft 12kts
09-Jun-18 10:55 39.871458 -104.684961 178 5443ft 9kts
09-Jun-18 10:56 39.869041 -104.684956 180 5443ft 7kts
09-Jun-18 10:57 39.866495 -104.685003 179 5443ft 10kts
09-Jun-18 10:58 39.864196 -104.683869 179 5443ft 8kts
09-Jun-18 10:59 39.862236 -104.683897 181 5443ft 5kts
09-Jun-18 11:00 39.859715 -104.683923 181 5443ft 14kts
09-Jun-18 11:01 39.856257 -104.683901 155 5443ft 8kts
09-Jun-18 11:02 39.856634 -104.681552 68 5443ft 6kts
09-Jun-18 11:03 39.857345 -104.679097 47 5443ft 7kts
09-Jun-18 11:04 39.858148 -104.678882 0 5443ft 0kts
09-Jun-18 11:05 39.858148 -104.678882 0 5443ft 0kts
09-Jun-18 11:06 39.858148 -104.678882 0 5443ft 0kts

Navigation Log

Ident Type
Flight plan parsing failed, navigation log unavailable